sensor_id;sensor_type;location;lat;lon;timestamp;P1;durP1;ratioP1;P2;durP2;ratioP2
73337;SDS011;61575;49.908;35.556;2022-10-18T00:00:46;16.48;;;10.55;;
73337;SDS011;61575;49.908;35.556;2022-10-18T00:03:48;18.45;;;10.48;;
73337;SDS011;61575;49.908;35.556;2022-10-18T00:06:50;16.20;;;9.80;;
73337;SDS011;61575;49.908;35.556;2022-10-18T00:09:53;17.30;;;9.60;;
73337;SDS011;61575;49.908;35.556;2022-10-18T00:15:57;16.83;;;9.75;;
73337;SDS011;61575;49.908;35.556;2022-10-18T00:19:01;16.73;;;9.55;;
73337;SDS011;61575;49.908;35.556;2022-10-18T00:22:03;14.90;;;9.45;;
73337;SDS011;61575;49.908;35.556;2022-10-18T00:25:06;17.17;;;9.25;;
73337;SDS011;61575;49.908;35.556;2022-10-18T00:28:08;18.90;;;9.95;;
73337;SDS011;61575;49.908;35.556;2022-10-18T00:31:14;17.85;;;10.35;;
73337;SDS011;61575;49.908;35.556;2022-10-18T00:34:21;17.70;;;9.25;;
73337;SDS011;61575;49.908;35.556;2022-10-18T00:37:23;17.48;;;10.02;;
73337;SDS011;61575;49.908;35.556;2022-10-18T00:40:25;19.67;;;10.32;;
73337;SDS011;61575;49.908;35.556;2022-10-18T00:43:26;17.00;;;9.57;;
73337;SDS011;61575;49.908;35.556;2022-10-18T00:46:30;18.33;;;10.18;;
73337;SDS011;61575;49.908;35.556;2022-10-18T00:49:34;17.27;;;10.30;;
73337;SDS011;61575;49.908;35.556;2022-10-18T00:52:43;22.00;;;11.60;;
73337;SDS011;61575;49.908;35.556;2022-10-18T00:55:48;17.95;;;10.00;;
73337;SDS011;61575;49.908;35.556;2022-10-18T00:58:51;16.75;;;10.50;;
73337;SDS011;61575;49.908;35.556;2022-10-18T01:01:53;16.33;;;10.80;;
73337;SDS011;61575;49.908;35.556;2022-10-18T01:04:55;18.70;;;10.75;;
73337;SDS011;61575;49.908;35.556;2022-10-18T01:15:04;17.40;;;9.75;;
73337;SDS011;61575;49.908;35.556;2022-10-18T01:18:29;19.33;;;10.55;;
73337;SDS011;61575;49.908;35.556;2022-10-18T01:31:57;16.48;;;10.10;;
73337;SDS011;61575;49.908;35.556;2022-10-18T01:35:02;20.20;;;10.40;;
73337;SDS011;61575;49.908;35.556;2022-10-18T01:38:09;16.30;;;10.00;;
73337;SDS011;61575;49.908;35.556;2022-10-18T01:41:17;17.83;;;10.75;;
73337;SDS011;61575;49.908;35.556;2022-10-18T01:44:23;18.25;;;10.40;;
73337;SDS011;61575;49.908;35.556;2022-10-18T01:47:27;17.15;;;11.02;;
73337;SDS011;61575;49.908;35.556;2022-10-18T01:50:30;19.88;;;11.25;;
73337;SDS011;61575;49.908;35.556;2022-10-18T01:53:34;16.90;;;10.02;;
73337;SDS011;61575;49.908;35.556;2022-10-18T02:00:16;17.17;;;9.68;;
73337;SDS011;61575;49.908;35.556;2022-10-18T02:03:23;18.00;;;10.00;;
73337;SDS011;61575;49.908;35.556;2022-10-18T02:06:29;17.20;;;9.80;;
73337;SDS011;61575;49.908;35.556;2022-10-18T02:09:40;19.52;;;11.00;;
73337;SDS011;61575;49.908;35.556;2022-10-18T02:12:47;19.45;;;10.30;;
73337;SDS011;61575;49.908;35.556;2022-10-18T02:15:53;17.25;;;9.88;;
73337;SDS011;61575;49.908;35.556;2022-10-18T02:19:01;17.00;;;9.73;;
73337;SDS011;61575;49.908;35.556;2022-10-18T02:22:10;16.20;;;10.15;;
73337;SDS011;61575;49.908;35.556;2022-10-18T02:25:15;16.90;;;10.05;;
73337;SDS011;61575;49.908;35.556;2022-10-18T02:28:20;19.95;;;10.13;;
73337;SDS011;61575;49.908;35.556;2022-10-18T02:34:42;15.68;;;9.32;;
73337;SDS011;61575;49.908;35.556;2022-10-18T02:37:47;18.05;;;10.05;;
73337;SDS011;61575;49.908;35.556;2022-10-18T02:40:50;18.98;;;10.23;;
73337;SDS011;61575;49.908;35.556;2022-10-18T02:43:52;18.75;;;11.02;;
73337;SDS011;61575;49.908;35.556;2022-10-18T02:46:54;18.10;;;11.07;;
73337;SDS011;61575;49.908;35.556;2022-10-18T02:49:56;16.27;;;9.98;;
73337;SDS011;61575;49.908;35.556;2022-10-18T02:52:58;20.30;;;10.65;;
73337;SDS011;61575;49.908;35.556;2022-10-18T02:56:00;17.50;;;10.35;;
73337;SDS011;61575;49.908;35.556;2022-10-18T02:59:03;19.02;;;11.45;;
73337;SDS011;61575;49.908;35.556;2022-10-18T03:02:07;16.55;;;10.70;;
73337;SDS011;61575;49.908;35.556;2022-10-18T03:05:09;18.60;;;9.63;;
73337;SDS011;61575;49.908;35.556;2022-10-18T03:08:11;17.25;;;10.27;;
73337;SDS011;61575;49.908;35.556;2022-10-18T03:11:13;20.42;;;10.65;;
73337;SDS011;61575;49.908;35.556;2022-10-18T03:14:14;18.58;;;10.50;;
73337;SDS011;61575;49.908;35.556;2022-10-18T03:17:16;18.85;;;11.23;;
73337;SDS011;61575;49.908;35.556;2022-10-18T03:20:18;20.10;;;10.57;;
73337;SDS011;61575;49.908;35.556;2022-10-18T03:23:20;18.33;;;10.57;;
73337;SDS011;61575;49.908;35.556;2022-10-18T03:26:22;21.50;;;11.55;;
73337;SDS011;61575;49.908;35.556;2022-10-18T03:29:23;17.70;;;10.70;;
73337;SDS011;61575;49.908;35.556;2022-10-18T03:32:25;20.95;;;11.13;;
73337;SDS011;61575;49.908;35.556;2022-10-18T03:35:27;16.35;;;9.80;;
73337;SDS011;61575;49.908;35.556;2022-10-18T03:38:29;17.17;;;10.40;;
73337;SDS011;61575;49.908;35.556;2022-10-18T03:41:31;18.63;;;10.77;;
73337;SDS011;61575;49.908;35.556;2022-10-18T03:44:33;21.05;;;10.68;;
73337;SDS011;61575;49.908;35.556;2022-10-18T03:47:35;17.95;;;10.02;;
73337;SDS011;61575;49.908;35.556;2022-10-18T03:50:37;19.25;;;10.82;;
73337;SDS011;61575;49.908;35.556;2022-10-18T03:53:39;17.33;;;10.02;;
73337;SDS011;61575;49.908;35.556;2022-10-18T03:56:41;23.73;;;12.32;;
73337;SDS011;61575;49.908;35.556;2022-10-18T03:59:42;18.00;;;10.68;;
73337;SDS011;61575;49.908;35.556;2022-10-18T04:02:44;21.27;;;11.70;;
73337;SDS011;61575;49.908;35.556;2022-10-18T04:05:46;15.40;;;9.63;;
73337;SDS011;61575;49.908;35.556;2022-10-18T04:08:49;20.77;;;11.07;;
73337;SDS011;61575;49.908;35.556;2022-10-18T04:11:51;22.35;;;12.43;;
73337;SDS011;61575;49.908;35.556;2022-10-18T04:14:53;22.40;;;13.63;;
73337;SDS011;61575;49.908;35.556;2022-10-18T04:17:56;22.50;;;12.63;;
73337;SDS011;61575;49.908;35.556;2022-10-18T04:20:57;27.00;;;14.43;;
73337;SDS011;61575;49.908;35.556;2022-10-18T04:23:59;51.05;;;22.58;;
73337;SDS011;61575;49.908;35.556;2022-10-18T04:27:01;25.42;;;13.48;;
73337;SDS011;61575;49.908;35.556;2022-10-18T04:30:03;23.67;;;12.07;;
73337;SDS011;61575;49.908;35.556;2022-10-18T04:33:05;20.70;;;11.25;;
73337;SDS011;61575;49.908;35.556;2022-10-18T04:36:07;22.60;;;12.60;;
73337;SDS011;61575;49.908;35.556;2022-10-18T04:39:09;22.02;;;11.65;;
73337;SDS011;61575;49.908;35.556;2022-10-18T04:42:11;21.90;;;10.88;;
73337;SDS011;61575;49.908;35.556;2022-10-18T04:45:12;21.77;;;12.23;;
73337;SDS011;61575;49.908;35.556;2022-10-18T04:48:14;18.58;;;10.90;;
73337;SDS011;61575;49.908;35.556;2022-10-18T04:51:17;18.60;;;11.13;;
73337;SDS011;61575;49.908;35.556;2022-10-18T04:54:18;20.60;;;10.88;;
73337;SDS011;61575;49.908;35.556;2022-10-18T04:57:24;23.33;;;11.48;;
73337;SDS011;61575;49.908;35.556;2022-10-18T05:00:26;20.35;;;11.50;;
73337;SDS011;61575;49.908;35.556;2022-10-18T05:03:28;18.63;;;10.98;;
73337;SDS011;61575;49.908;35.556;2022-10-18T05:06:30;26.90;;;15.32;;
73337;SDS011;61575;49.908;35.556;2022-10-18T05:09:32;27.42;;;14.90;;
73337;SDS011;61575;49.908;35.556;2022-10-18T05:12:34;23.83;;;12.82;;
73337;SDS011;61575;49.908;35.556;2022-10-18T05:15:36;21.80;;;11.07;;
73337;SDS011;61575;49.908;35.556;2022-10-18T05:18:38;18.50;;;10.90;;
73337;SDS011;61575;49.908;35.556;2022-10-18T05:21:39;19.20;;;11.02;;
73337;SDS011;61575;49.908;35.556;2022-10-18T05:24:41;15.73;;;9.80;;
73337;SDS011;61575;49.908;35.556;2022-10-18T05:27:43;18.65;;;11.05;;
73337;SDS011;61575;49.908;35.556;2022-10-18T05:30:45;21.52;;;11.50;;
73337;SDS011;61575;49.908;35.556;2022-10-18T05:33:47;21.88;;;12.38;;
73337;SDS011;61575;49.908;35.556;2022-10-18T05:36:48;18.77;;;11.05;;
73337;SDS011;61575;49.908;35.556;2022-10-18T05:39:50;22.83;;;12.07;;
73337;SDS011;61575;49.908;35.556;2022-10-18T05:42:52;18.20;;;10.77;;
73337;SDS011;61575;49.908;35.556;2022-10-18T05:45:54;23.23;;;12.38;;
73337;SDS011;61575;49.908;35.556;2022-10-18T05:48:56;21.48;;;11.07;;
73337;SDS011;61575;49.908;35.556;2022-10-18T05:51:58;21.15;;;10.38;;
73337;SDS011;61575;49.908;35.556;2022-10-18T05:55:00;20.23;;;11.55;;
73337;SDS011;61575;49.908;35.556;2022-10-18T05:58:02;18.25;;;11.63;;
73337;SDS011;61575;49.908;35.556;2022-10-18T06:01:04;18.85;;;10.52;;
73337;SDS011;61575;49.908;35.556;2022-10-18T06:04:07;18.33;;;9.95;;
73337;SDS011;61575;49.908;35.556;2022-10-18T06:07:13;16.90;;;9.90;;
73337;SDS011;61575;49.908;35.556;2022-10-18T06:10:15;19.05;;;10.82;;
73337;SDS011;61575;49.908;35.556;2022-10-18T06:13:17;17.67;;;10.30;;
73337;SDS011;61575;49.908;35.556;2022-10-18T06:16:20;17.13;;;9.48;;
73337;SDS011;61575;49.908;35.556;2022-10-18T06:19:23;18.98;;;10.63;;
73337;SDS011;61575;49.908;35.556;2022-10-18T06:22:24;22.65;;;11.50;;
73337;SDS011;61575;49.908;35.556;2022-10-18T06:25:26;17.65;;;10.32;;
73337;SDS011;61575;49.908;35.556;2022-10-18T06:28:28;16.65;;;9.57;;
73337;SDS011;61575;49.908;35.556;2022-10-18T06:31:30;16.40;;;9.73;;
73337;SDS011;61575;49.908;35.556;2022-10-18T06:34:32;15.48;;;9.27;;
73337;SDS011;61575;49.908;35.556;2022-10-18T06:37:34;16.92;;;9.43;;
73337;SDS011;61575;49.908;35.556;2022-10-18T06:40:38;19.55;;;11.32;;
73337;SDS011;61575;49.908;35.556;2022-10-18T06:43:39;18.58;;;9.38;;
73337;SDS011;61575;49.908;35.556;2022-10-18T06:46:42;18.00;;;9.65;;
73337;SDS011;61575;49.908;35.556;2022-10-18T06:49:45;19.10;;;9.15;;
73337;SDS011;61575;49.908;35.556;2022-10-18T06:52:47;15.00;;;8.75;;
73337;SDS011;61575;49.908;35.556;2022-10-18T06:55:49;15.45;;;9.35;;
73337;SDS011;61575;49.908;35.556;2022-10-18T06:58:51;18.43;;;9.10;;
73337;SDS011;61575;49.908;35.556;2022-10-18T07:01:53;16.00;;;8.87;;
73337;SDS011;61575;49.908;35.556;2022-10-18T07:04:55;17.00;;;8.63;;
73337;SDS011;61575;49.908;35.556;2022-10-18T07:07:57;15.00;;;8.50;;
73337;SDS011;61575;49.908;35.556;2022-10-18T07:10:59;16.90;;;8.98;;
73337;SDS011;61575;49.908;35.556;2022-10-18T07:14:02;16.13;;;8.70;;
73337;SDS011;61575;49.908;35.556;2022-10-18T07:17:05;13.82;;;8.35;;
73337;SDS011;61575;49.908;35.556;2022-10-18T07:20:07;12.40;;;7.70;;
73337;SDS011;61575;49.908;35.556;2022-10-18T07:23:09;16.10;;;8.10;;
73337;SDS011;61575;49.908;35.556;2022-10-18T07:26:16;15.25;;;8.35;;
73337;SDS011;61575;49.908;35.556;2022-10-18T07:29:21;11.57;;;7.25;;
73337;SDS011;61575;49.908;35.556;2022-10-18T07:32:23;15.15;;;8.15;;
73337;SDS011;61575;49.908;35.556;2022-10-18T07:35:25;13.85;;;7.60;;
73337;SDS011;61575;49.908;35.556;2022-10-18T07:38:27;14.63;;;7.97;;
73337;SDS011;61575;49.908;35.556;2022-10-18T07:41:28;11.70;;;7.13;;
73337;SDS011;61575;49.908;35.556;2022-10-18T07:44:33;15.75;;;7.85;;
73337;SDS011;61575;49.908;35.556;2022-10-18T07:47:35;17.23;;;7.70;;
73337;SDS011;61575;49.908;35.556;2022-10-18T07:50:37;14.52;;;7.80;;
73337;SDS011;61575;49.908;35.556;2022-10-18T07:53:39;12.48;;;7.00;;
73337;SDS011;61575;49.908;35.556;2022-10-18T07:56:41;12.10;;;7.43;;
73337;SDS011;61575;49.908;35.556;2022-10-18T07:59:43;15.02;;;7.57;;
73337;SDS011;61575;49.908;35.556;2022-10-18T08:02:48;14.27;;;7.40;;
73337;SDS011;61575;49.908;35.556;2022-10-18T08:05:50;15.48;;;9.02;;
73337;SDS011;61575;49.908;35.556;2022-10-18T08:08:53;13.65;;;7.20;;
73337;SDS011;61575;49.908;35.556;2022-10-18T08:11:55;11.90;;;7.50;;
73337;SDS011;61575;49.908;35.556;2022-10-18T08:14:57;12.83;;;7.53;;
73337;SDS011;61575;49.908;35.556;2022-10-18T08:17:59;11.98;;;7.32;;
73337;SDS011;61575;49.908;35.556;2022-10-18T08:21:01;12.05;;;7.28;;
73337;SDS011;61575;49.908;35.556;2022-10-18T08:24:05;11.73;;;6.90;;
73337;SDS011;61575;49.908;35.556;2022-10-18T08:27:07;14.07;;;6.03;;
73337;SDS011;61575;49.908;35.556;2022-10-18T08:30:09;11.23;;;6.60;;
73337;SDS011;61575;49.908;35.556;2022-10-18T08:33:11;13.90;;;7.00;;
73337;SDS011;61575;49.908;35.556;2022-10-18T08:36:14;12.33;;;5.77;;
73337;SDS011;61575;49.908;35.556;2022-10-18T08:39:17;11.13;;;5.80;;
73337;SDS011;61575;49.908;35.556;2022-10-18T08:42:24;11.40;;;5.75;;
73337;SDS011;61575;49.908;35.556;2022-10-18T08:45:30;10.85;;;5.57;;
73337;SDS011;61575;49.908;35.556;2022-10-18T08:48:47;10.80;;;5.63;;
73337;SDS011;61575;49.908;35.556;2022-10-18T08:51:50;12.05;;;5.40;;
73337;SDS011;61575;49.908;35.556;2022-10-18T08:55:10;11.05;;;5.03;;
73337;SDS011;61575;49.908;35.556;2022-10-18T08:58:22;7.97;;;5.00;;
73337;SDS011;61575;49.908;35.556;2022-10-18T09:15:35;11.55;;;4.80;;
73337;SDS011;61575;49.908;35.556;2022-10-18T09:26:02;14.70;;;7.80;;
73337;SDS011;61575;49.908;35.556;2022-10-18T09:35:41;8.77;;;4.15;;
73337;SDS011;61575;49.908;35.556;2022-10-18T09:38:54;8.68;;;4.03;;
73337;SDS011;61575;49.908;35.556;2022-10-18T09:45:34;7.75;;;4.28;;
73337;SDS011;61575;49.908;35.556;2022-10-18T09:51:51;5.78;;;3.35;;
73337;SDS011;61575;49.908;35.556;2022-10-18T09:54:58;7.07;;;3.80;;
73337;SDS011;61575;49.908;35.556;2022-10-18T09:58:04;15.25;;;4.30;;
73337;SDS011;61575;49.908;35.556;2022-10-18T10:01:09;11.40;;;4.10;;
73337;SDS011;61575;49.908;35.556;2022-10-18T10:04:13;11.48;;;3.97;;
73337;SDS011;61575;49.908;35.556;2022-10-18T10:10:22;7.28;;;3.83;;
73337;SDS011;61575;49.908;35.556;2022-10-18T10:13:26;9.05;;;4.10;;
73337;SDS011;61575;49.908;35.556;2022-10-18T10:16:28;8.95;;;4.00;;
73337;SDS011;61575;49.908;35.556;2022-10-18T10:22:53;9.48;;;4.40;;
73337;SDS011;61575;49.908;35.556;2022-10-18T10:33:05;8.00;;;4.00;;
73337;SDS011;61575;49.908;35.556;2022-10-18T10:36:29;10.18;;;4.18;;
73337;SDS011;61575;49.908;35.556;2022-10-18T10:39:32;9.38;;;4.28;;
73337;SDS011;61575;49.908;35.556;2022-10-18T10:42:35;10.23;;;4.10;;
73337;SDS011;61575;49.908;35.556;2022-10-18T10:46:22;7.40;;;4.10;;
73337;SDS011;61575;49.908;35.556;2022-10-18T10:49:15;8.25;;;4.25;;
73337;SDS011;61575;49.908;35.556;2022-10-18T10:52:39;7.70;;;4.03;;
73337;SDS011;61575;49.908;35.556;2022-10-18T10:55:44;12.93;;;4.40;;
73337;SDS011;61575;49.908;35.556;2022-10-18T10:58:46;9.20;;;4.05;;
73337;SDS011;61575;49.908;35.556;2022-10-18T11:01:49;10.20;;;4.57;;
73337;SDS011;61575;49.908;35.556;2022-10-18T11:05:24;13.70;;;7.13;;
73337;SDS011;61575;49.908;35.556;2022-10-18T11:08:37;21.50;;;7.50;;
73337;SDS011;61575;49.908;35.556;2022-10-18T11:11:42;14.80;;;7.43;;
73337;SDS011;61575;49.908;35.556;2022-10-18T11:18:33;15.35;;;7.90;;
73337;SDS011;61575;49.908;35.556;2022-10-18T11:21:37;11.05;;;5.68;;
73337;SDS011;61575;49.908;35.556;2022-10-18T11:24:40;9.23;;;4.57;;
73337;SDS011;61575;49.908;35.556;2022-10-18T11:27:45;11.00;;;4.28;;
73337;SDS011;61575;49.908;35.556;2022-10-18T11:43:53;10.60;;;4.10;;
73337;SDS011;61575;49.908;35.556;2022-10-18T11:47:15;12.13;;;3.97;;
73337;SDS011;61575;49.908;35.556;2022-10-18T11:53:37;8.93;;;4.22;;
73337;SDS011;61575;49.908;35.556;2022-10-18T11:56:51;8.23;;;4.00;;
73337;SDS011;61575;49.908;35.556;2022-10-18T12:00:04;6.78;;;3.60;;
73337;SDS011;61575;49.908;35.556;2022-10-18T12:06:44;7.93;;;4.03;;
73337;SDS011;61575;49.908;35.556;2022-10-18T12:09:48;13.45;;;4.05;;
73337;SDS011;61575;49.908;35.556;2022-10-18T12:12:55;7.90;;;3.28;;
73337;SDS011;61575;49.908;35.556;2022-10-18T12:16:02;7.90;;;3.60;;
73337;SDS011;61575;49.908;35.556;2022-10-18T12:19:12;6.43;;;3.50;;
73337;SDS011;61575;49.908;35.556;2022-10-18T12:22:27;9.02;;;3.42;;
73337;SDS011;61575;49.908;35.556;2022-10-18T12:25:37;10.52;;;3.70;;
73337;SDS011;61575;49.908;35.556;2022-10-18T12:35:11;9.55;;;4.40;;
73337;SDS011;61575;49.908;35.556;2022-10-18T12:38:18;9.35;;;4.53;;
73337;SDS011;61575;49.908;35.556;2022-10-18T12:41:26;6.68;;;3.50;;
73337;SDS011;61575;49.908;35.556;2022-10-18T12:44:31;7.53;;;3.78;;
73337;SDS011;61575;49.908;35.556;2022-10-18T12:47:35;11.52;;;5.30;;
73337;SDS011;61575;49.908;35.556;2022-10-18T12:50:37;10.10;;;4.90;;
73337;SDS011;61575;49.908;35.556;2022-10-18T12:53:45;11.32;;;4.70;;
73337;SDS011;61575;49.908;35.556;2022-10-18T12:56:50;9.63;;;4.30;;
73337;SDS011;61575;49.908;35.556;2022-10-18T12:59:53;12.13;;;5.78;;
73337;SDS011;61575;49.908;35.556;2022-10-18T13:03:36;10.55;;;4.55;;
73337;SDS011;61575;49.908;35.556;2022-10-18T13:06:26;9.32;;;4.63;;
73337;SDS011;61575;49.908;35.556;2022-10-18T13:16:45;9.07;;;4.40;;
73337;SDS011;61575;49.908;35.556;2022-10-18T13:23:45;7.63;;;3.75;;
73337;SDS011;61575;49.908;35.556;2022-10-18T13:33:50;15.40;;;5.07;;
73337;SDS011;61575;49.908;35.556;2022-10-18T13:37:03;9.73;;;4.60;;
73337;SDS011;61575;49.908;35.556;2022-10-18T13:40:26;29.05;;;10.48;;
73337;SDS011;61575;49.908;35.556;2022-10-18T14:03:58;28.20;;;13.13;;
73337;SDS011;61575;49.908;35.556;2022-10-18T14:07:20;24.23;;;11.63;;
73337;SDS011;61575;49.908;35.556;2022-10-18T14:10:31;27.20;;;11.68;;
73337;SDS011;61575;49.908;35.556;2022-10-18T14:17:48;16.80;;;7.70;;
73337;SDS011;61575;49.908;35.556;2022-10-18T14:20:44;15.75;;;6.82;;
73337;SDS011;61575;49.908;35.556;2022-10-18T14:24:19;17.60;;;6.85;;
73337;SDS011;61575;49.908;35.556;2022-10-18T14:27:25;29.20;;;11.87;;
73337;SDS011;61575;49.908;35.556;2022-10-18T14:30:34;25.75;;;9.70;;
73337;SDS011;61575;49.908;35.556;2022-10-18T14:33:39;22.88;;;10.10;;
73337;SDS011;61575;49.908;35.556;2022-10-18T14:36:44;44.15;;;21.85;;
73337;SDS011;61575;49.908;35.556;2022-10-18T14:39:48;72.05;;;35.08;;
73337;SDS011;61575;49.908;35.556;2022-10-18T14:42:50;60.40;;;26.88;;
73337;SDS011;61575;49.908;35.556;2022-10-18T14:45:52;47.00;;;20.40;;
73337;SDS011;61575;49.908;35.556;2022-10-18T14:48:58;38.47;;;15.50;;
73337;SDS011;61575;49.908;35.556;2022-10-18T14:52:01;39.50;;;15.68;;
73337;SDS011;61575;49.908;35.556;2022-10-18T14:55:03;49.13;;;20.00;;
73337;SDS011;61575;49.908;35.556;2022-10-18T14:58:12;40.20;;;16.80;;
73337;SDS011;61575;49.908;35.556;2022-10-18T15:01:17;27.10;;;11.52;;
73337;SDS011;61575;49.908;35.556;2022-10-18T15:04:20;24.95;;;10.95;;
73337;SDS011;61575;49.908;35.556;2022-10-18T15:07:29;33.30;;;14.48;;
73337;SDS011;61575;49.908;35.556;2022-10-18T15:10:32;47.45;;;20.92;;
73337;SDS011;61575;49.908;35.556;2022-10-18T15:16:42;37.17;;;16.00;;
73337;SDS011;61575;49.908;35.556;2022-10-18T15:19:54;41.95;;;15.00;;
73337;SDS011;61575;49.908;35.556;2022-10-18T15:26:25;45.40;;;18.20;;
73337;SDS011;61575;49.908;35.556;2022-10-18T15:29:30;36.65;;;15.52;;
73337;SDS011;61575;49.908;35.556;2022-10-18T15:32:33;30.27;;;12.25;;
73337;SDS011;61575;49.908;35.556;2022-10-18T15:35:36;32.47;;;13.13;;
73337;SDS011;61575;49.908;35.556;2022-10-18T15:38:39;30.23;;;15.00;;
73337;SDS011;61575;49.908;35.556;2022-10-18T15:41:43;28.03;;;11.00;;
73337;SDS011;61575;49.908;35.556;2022-10-18T15:45:26;21.58;;;9.30;;
73337;SDS011;61575;49.908;35.556;2022-10-18T15:48:37;12.63;;;6.32;;
73337;SDS011;61575;49.908;35.556;2022-10-18T15:51:47;14.20;;;7.18;;
73337;SDS011;61575;49.908;35.556;2022-10-18T15:54:50;17.80;;;6.30;;
73337;SDS011;61575;49.908;35.556;2022-10-18T15:57:52;16.30;;;7.67;;
73337;SDS011;61575;49.908;35.556;2022-10-18T16:00:58;13.70;;;6.33;;
73337;SDS011;61575;49.908;35.556;2022-10-18T16:04:07;18.30;;;8.27;;
73337;SDS011;61575;49.908;35.556;2022-10-18T16:07:19;17.60;;;9.77;;
73337;SDS011;61575;49.908;35.556;2022-10-18T16:10:21;13.33;;;6.80;;
73337;SDS011;61575;49.908;35.556;2022-10-18T16:13:24;13.17;;;5.83;;
73337;SDS011;61575;49.908;35.556;2022-10-18T16:16:26;9.45;;;5.43;;
73337;SDS011;61575;49.908;35.556;2022-10-18T16:19:29;9.13;;;5.10;;
73337;SDS011;61575;49.908;35.556;2022-10-18T16:22:32;11.35;;;5.75;;
73337;SDS011;61575;49.908;35.556;2022-10-18T16:25:37;12.40;;;5.28;;
73337;SDS011;61575;49.908;35.556;2022-10-18T16:28:39;10.30;;;4.80;;
73337;SDS011;61575;49.908;35.556;2022-10-18T16:31:41;12.13;;;5.30;;
73337;SDS011;61575;49.908;35.556;2022-10-18T16:34:43;13.40;;;6.75;;
73337;SDS011;61575;49.908;35.556;2022-10-18T16:37:45;16.37;;;8.17;;
73337;SDS011;61575;49.908;35.556;2022-10-18T16:40:47;16.58;;;7.05;;
73337;SDS011;61575;49.908;35.556;2022-10-18T16:43:49;20.27;;;8.83;;
73337;SDS011;61575;49.908;35.556;2022-10-18T16:49:56;18.77;;;6.97;;
73337;SDS011;61575;49.908;35.556;2022-10-18T16:53:04;20.80;;;8.95;;
73337;SDS011;61575;49.908;35.556;2022-10-18T16:56:10;23.25;;;9.25;;
73337;SDS011;61575;49.908;35.556;2022-10-18T16:59:26;20.33;;;9.57;;
73337;SDS011;61575;49.908;35.556;2022-10-18T17:02:29;19.02;;;8.90;;
73337;SDS011;61575;49.908;35.556;2022-10-18T17:05:32;23.00;;;10.52;;
73337;SDS011;61575;49.908;35.556;2022-10-18T17:08:34;29.45;;;11.88;;
73337;SDS011;61575;49.908;35.556;2022-10-18T17:11:36;16.47;;;7.13;;
73337;SDS011;61575;49.908;35.556;2022-10-18T17:14:37;15.93;;;6.37;;
73337;SDS011;61575;49.908;35.556;2022-10-18T17:17:39;15.23;;;6.47;;
73337;SDS011;61575;49.908;35.556;2022-10-18T17:20:41;15.40;;;7.40;;
73337;SDS011;61575;49.908;35.556;2022-10-18T17:23:44;14.68;;;6.53;;
73337;SDS011;61575;49.908;35.556;2022-10-18T17:26:46;16.67;;;6.13;;
73337;SDS011;61575;49.908;35.556;2022-10-18T17:29:47;22.37;;;7.23;;
73337;SDS011;61575;49.908;35.556;2022-10-18T17:32:49;19.55;;;8.75;;
73337;SDS011;61575;49.908;35.556;2022-10-18T17:35:51;14.27;;;6.03;;
73337;SDS011;61575;49.908;35.556;2022-10-18T17:38:53;14.97;;;4.87;;
73337;SDS011;61575;49.908;35.556;2022-10-18T17:41:56;13.30;;;5.15;;
73337;SDS011;61575;49.908;35.556;2022-10-18T17:44:58;11.75;;;5.43;;
73337;SDS011;61575;49.908;35.556;2022-10-18T17:48:00;13.00;;;5.83;;
73337;SDS011;61575;49.908;35.556;2022-10-18T17:51:09;12.55;;;5.78;;
73337;SDS011;61575;49.908;35.556;2022-10-18T17:54:13;12.73;;;4.70;;
73337;SDS011;61575;49.908;35.556;2022-10-18T17:57:15;13.13;;;5.23;;
73337;SDS011;61575;49.908;35.556;2022-10-18T18:00:18;12.15;;;5.00;;
73337;SDS011;61575;49.908;35.556;2022-10-18T18:03:19;10.65;;;5.20;;
73337;SDS011;61575;49.908;35.556;2022-10-18T18:06:22;11.67;;;4.97;;
73337;SDS011;61575;49.908;35.556;2022-10-18T18:09:34;9.68;;;4.82;;
73337;SDS011;61575;49.908;35.556;2022-10-18T18:12:36;11.23;;;5.70;;
73337;SDS011;61575;49.908;35.556;2022-10-18T18:15:37;10.95;;;5.13;;
73337;SDS011;61575;49.908;35.556;2022-10-18T18:18:39;14.53;;;6.47;;
73337;SDS011;61575;49.908;35.556;2022-10-18T18:21:42;12.05;;;5.68;;
73337;SDS011;61575;49.908;35.556;2022-10-18T18:24:43;14.27;;;5.50;;
73337;SDS011;61575;49.908;35.556;2022-10-18T18:27:45;14.00;;;5.60;;
73337;SDS011;61575;49.908;35.556;2022-10-18T18:30:47;9.50;;;4.63;;
73337;SDS011;61575;49.908;35.556;2022-10-18T18:33:51;16.27;;;6.80;;
73337;SDS011;61575;49.908;35.556;2022-10-18T18:36:54;9.85;;;4.85;;
73337;SDS011;61575;49.908;35.556;2022-10-18T18:39:56;14.63;;;6.00;;
73337;SDS011;61575;49.908;35.556;2022-10-18T18:42:58;12.70;;;5.23;;
73337;SDS011;61575;49.908;35.556;2022-10-18T18:46:12;10.13;;;4.65;;
73337;SDS011;61575;49.908;35.556;2022-10-18T18:49:14;11.60;;;5.10;;
73337;SDS011;61575;49.908;35.556;2022-10-18T18:52:16;8.20;;;4.73;;
73337;SDS011;61575;49.908;35.556;2022-10-18T18:55:18;9.38;;;4.88;;
73337;SDS011;61575;49.908;35.556;2022-10-18T18:58:20;11.47;;;5.27;;
73337;SDS011;61575;49.908;35.556;2022-10-18T19:01:22;12.80;;;5.57;;
73337;SDS011;61575;49.908;35.556;2022-10-18T19:04:26;15.05;;;7.00;;
73337;SDS011;61575;49.908;35.556;2022-10-18T19:10:31;15.00;;;6.15;;
73337;SDS011;61575;49.908;35.556;2022-10-18T19:13:33;13.13;;;5.53;;
73337;SDS011;61575;49.908;35.556;2022-10-18T19:16:39;13.57;;;5.07;;
73337;SDS011;61575;49.908;35.556;2022-10-18T19:19:46;18.58;;;9.15;;
73337;SDS011;61575;49.908;35.556;2022-10-18T19:22:47;10.50;;;5.63;;
73337;SDS011;61575;49.908;35.556;2022-10-18T19:25:49;12.00;;;5.53;;
73337;SDS011;61575;49.908;35.556;2022-10-18T19:28:51;11.17;;;5.37;;
73337;SDS011;61575;49.908;35.556;2022-10-18T19:31:54;10.45;;;5.03;;
73337;SDS011;61575;49.908;35.556;2022-10-18T19:34:57;11.75;;;5.10;;
73337;SDS011;61575;49.908;35.556;2022-10-18T19:37:59;12.00;;;4.80;;
73337;SDS011;61575;49.908;35.556;2022-10-18T19:41:01;12.00;;;4.75;;
73337;SDS011;61575;49.908;35.556;2022-10-18T19:44:03;11.43;;;5.63;;
73337;SDS011;61575;49.908;35.556;2022-10-18T19:47:06;13.80;;;5.43;;
73337;SDS011;61575;49.908;35.556;2022-10-18T19:50:10;12.32;;;4.72;;
73337;SDS011;61575;49.908;35.556;2022-10-18T19:53:12;11.07;;;5.55;;
73337;SDS011;61575;49.908;35.556;2022-10-18T19:56:16;11.68;;;5.32;;
73337;SDS011;61575;49.908;35.556;2022-10-18T19:59:20;15.30;;;7.05;;
73337;SDS011;61575;49.908;35.556;2022-10-18T20:02:23;17.85;;;7.63;;
73337;SDS011;61575;49.908;35.556;2022-10-18T20:05:25;13.02;;;5.60;;
73337;SDS011;61575;49.908;35.556;2022-10-18T20:08:28;24.83;;;9.35;;
73337;SDS011;61575;49.908;35.556;2022-10-18T20:11:31;17.77;;;6.78;;
73337;SDS011;61575;49.908;35.556;2022-10-18T20:14:34;16.17;;;6.45;;
73337;SDS011;61575;49.908;35.556;2022-10-18T20:17:36;12.13;;;5.70;;
73337;SDS011;61575;49.908;35.556;2022-10-18T20:20:38;13.03;;;5.37;;
73337;SDS011;61575;49.908;35.556;2022-10-18T20:23:42;10.82;;;4.82;;
73337;SDS011;61575;49.908;35.556;2022-10-18T20:26:45;9.77;;;4.63;;
73337;SDS011;61575;49.908;35.556;2022-10-18T20:29:47;9.85;;;5.07;;
73337;SDS011;61575;49.908;35.556;2022-10-18T20:32:51;10.88;;;5.07;;
73337;SDS011;61575;49.908;35.556;2022-10-18T20:35:53;11.38;;;5.63;;